sensor_id;sensor_type;location;lat;lon;timestamp;P1;durP1;ratioP1;P2;durP2;ratioP2
46090;SDS011;31826;53.572;10.170;2023-04-01T00:02:18;9.10;;;3.93;;
46090;SDS011;31826;53.572;10.170;2023-04-01T00:04:44;9.10;;;3.20;;
46090;SDS011;31826;53.572;10.170;2023-04-01T00:07:10;10.30;;;3.50;;
46090;SDS011;31826;53.572;10.170;2023-04-01T00:09:36;9.10;;;3.40;;
46090;SDS011;31826;53.572;10.170;2023-04-01T00:12:02;11.30;;;3.88;;
46090;SDS011;31826;53.572;10.170;2023-04-01T00:14:28;9.23;;;3.90;;
46090;SDS011;31826;53.572;10.170;2023-04-01T00:16:54;8.27;;;3.22;;
46090;SDS011;31826;53.572;10.170;2023-04-01T00:19:20;11.60;;;3.80;;
46090;SDS011;31826;53.572;10.170;2023-04-01T00:21:46;10.30;;;3.90;;
46090;SDS011;31826;53.572;10.170;2023-04-01T00:24:13;9.93;;;3.40;;
46090;SDS011;31826;53.572;10.170;2023-04-01T00:26:39;11.60;;;3.55;;
46090;SDS011;31826;53.572;10.170;2023-04-01T00:29:07;8.73;;;3.33;;
46090;SDS011;31826;53.572;10.170;2023-04-01T00:31:33;13.10;;;4.10;;
46090;SDS011;31826;53.572;10.170;2023-04-01T00:33:58;10.13;;;3.87;;
46090;SDS011;31826;53.572;10.170;2023-04-01T00:36:24;11.33;;;3.80;;
46090;SDS011;31826;53.572;10.170;2023-04-01T00:38:50;8.90;;;3.50;;
46090;SDS011;31826;53.572;10.170;2023-04-01T00:41:16;11.27;;;3.50;;
46090;SDS011;31826;53.572;10.170;2023-04-01T00:43:44;9.15;;;3.88;;
46090;SDS011;31826;53.572;10.170;2023-04-01T00:46:14;8.60;;;3.45;;
46090;SDS011;31826;53.572;10.170;2023-04-01T00:48:42;9.32;;;3.60;;
46090;SDS011;31826;53.572;10.170;2023-04-01T00:51:16;8.15;;;3.58;;
46090;SDS011;31826;53.572;10.170;2023-04-01T00:53:46;9.40;;;3.70;;
46090;SDS011;31826;53.572;10.170;2023-04-01T00:56:24;9.03;;;3.33;;
46090;SDS011;31826;53.572;10.170;2023-04-01T00:59:02;10.05;;;3.55;;
46090;SDS011;31826;53.572;10.170;2023-04-01T01:01:33;11.40;;;3.90;;
46090;SDS011;31826;53.572;10.170;2023-04-01T01:04:00;7.70;;;3.20;;
46090;SDS011;31826;53.572;10.170;2023-04-01T01:06:51;9.18;;;3.55;;
46090;SDS011;31826;53.572;10.170;2023-04-01T01:12:26;9.07;;;3.67;;
46090;SDS011;31826;53.572;10.170;2023-04-01T01:31:54;9.68;;;4.20;;
46090;SDS011;31826;53.572;10.170;2023-04-01T01:37:16;9.27;;;3.72;;
46090;SDS011;31826;53.572;10.170;2023-04-01T01:39:44;8.87;;;3.37;;
46090;SDS011;31826;53.572;10.170;2023-04-01T01:42:15;8.95;;;3.70;;
46090;SDS011;31826;53.572;10.170;2023-04-01T01:44:43;10.88;;;4.20;;
46090;SDS011;31826;53.572;10.170;2023-04-01T01:47:12;10.95;;;3.60;;
46090;SDS011;31826;53.572;10.170;2023-04-01T01:49:39;11.65;;;3.92;;
46090;SDS011;31826;53.572;10.170;2023-04-01T01:52:06;10.32;;;3.95;;
46090;SDS011;31826;53.572;10.170;2023-04-01T01:54:32;10.40;;;3.83;;
46090;SDS011;31826;53.572;10.170;2023-04-01T01:57:04;10.30;;;4.23;;
46090;SDS011;31826;53.572;10.170;2023-04-01T01:59:32;10.30;;;3.50;;
46090;SDS011;31826;53.572;10.170;2023-04-01T02:02:01;14.18;;;4.28;;
46090;SDS011;31826;53.572;10.170;2023-04-01T02:04:33;9.95;;;4.20;;
46090;SDS011;31826;53.572;10.170;2023-04-01T02:07:05;12.50;;;3.83;;
46090;SDS011;31826;53.572;10.170;2023-04-01T02:09:36;10.90;;;3.75;;
46090;SDS011;31826;53.572;10.170;2023-04-01T02:12:06;10.40;;;4.40;;
46090;SDS011;31826;53.572;10.170;2023-04-01T02:17:08;11.88;;;3.95;;
46090;SDS011;31826;53.572;10.170;2023-04-01T02:19:38;10.38;;;3.70;;
46090;SDS011;31826;53.572;10.170;2023-04-01T02:22:09;8.32;;;4.05;;
46090;SDS011;31826;53.572;10.170;2023-04-01T02:24:40;9.55;;;4.03;;
46090;SDS011;31826;53.572;10.170;2023-04-01T02:27:09;10.85;;;4.00;;
46090;SDS011;31826;53.572;10.170;2023-04-01T02:29:35;9.63;;;3.70;;
46090;SDS011;31826;53.572;10.170;2023-04-01T02:32:01;9.38;;;4.38;;
46090;SDS011;31826;53.572;10.170;2023-04-01T02:34:28;8.55;;;4.30;;
46090;SDS011;31826;53.572;10.170;2023-04-01T02:36:54;11.90;;;4.10;;
46090;SDS011;31826;53.572;10.170;2023-04-01T02:39:21;8.77;;;3.75;;
46090;SDS011;31826;53.572;10.170;2023-04-01T02:41:47;11.20;;;4.50;;
46090;SDS011;31826;53.572;10.170;2023-04-01T02:44:14;12.02;;;4.32;;
46090;SDS011;31826;53.572;10.170;2023-04-01T02:46:40;11.75;;;4.70;;
46090;SDS011;31826;53.572;10.170;2023-04-01T02:49:06;12.45;;;4.82;;
46090;SDS011;31826;53.572;10.170;2023-04-01T02:51:32;9.30;;;3.95;;
46090;SDS011;31826;53.572;10.170;2023-04-01T02:53:58;10.32;;;4.28;;
46090;SDS011;31826;53.572;10.170;2023-04-01T02:56:24;9.77;;;4.43;;
46090;SDS011;31826;53.572;10.170;2023-04-01T02:58:51;12.50;;;4.50;;
46090;SDS011;31826;53.572;10.170;2023-04-01T03:01:17;11.30;;;4.40;;
46090;SDS011;31826;53.572;10.170;2023-04-01T03:03:42;11.55;;;4.38;;
46090;SDS011;31826;53.572;10.170;2023-04-01T03:06:09;9.47;;;4.00;;
46090;SDS011;31826;53.572;10.170;2023-04-01T03:08:36;9.60;;;4.13;;
46090;SDS011;31826;53.572;10.170;2023-04-01T03:11:03;9.68;;;4.32;;
46090;SDS011;31826;53.572;10.170;2023-04-01T03:13:29;10.15;;;4.55;;
46090;SDS011;31826;53.572;10.170;2023-04-01T03:15:54;9.60;;;3.83;;
46090;SDS011;31826;53.572;10.170;2023-04-01T03:18:20;9.80;;;4.30;;
46090;SDS011;31826;53.572;10.170;2023-04-01T03:20:46;9.20;;;4.05;;
46090;SDS011;31826;53.572;10.170;2023-04-01T03:23:12;10.88;;;3.97;;
46090;SDS011;31826;53.572;10.170;2023-04-01T03:25:38;9.32;;;3.92;;
46090;SDS011;31826;53.572;10.170;2023-04-01T03:28:04;12.68;;;4.50;;
46090;SDS011;31826;53.572;10.170;2023-04-01T03:30:29;10.30;;;4.22;;
46090;SDS011;31826;53.572;10.170;2023-04-01T03:32:56;10.03;;;4.10;;
46090;SDS011;31826;53.572;10.170;2023-04-01T03:35:26;9.52;;;3.78;;
46090;SDS011;31826;53.572;10.170;2023-04-01T03:37:52;10.93;;;4.55;;
46090;SDS011;31826;53.572;10.170;2023-04-01T03:40:18;9.18;;;4.07;;
46090;SDS011;31826;53.572;10.170;2023-04-01T03:42:45;10.90;;;4.45;;
46090;SDS011;31826;53.572;10.170;2023-04-01T03:45:11;10.90;;;4.82;;
46090;SDS011;31826;53.572;10.170;2023-04-01T03:47:39;9.77;;;4.30;;
46090;SDS011;31826;53.572;10.170;2023-04-01T03:50:05;10.02;;;4.80;;
46090;SDS011;31826;53.572;10.170;2023-04-01T03:52:32;12.43;;;5.00;;
46090;SDS011;31826;53.572;10.170;2023-04-01T03:54:59;14.52;;;5.05;;
46090;SDS011;31826;53.572;10.170;2023-04-01T03:57:25;11.05;;;4.43;;
46090;SDS011;31826;53.572;10.170;2023-04-01T03:59:51;10.57;;;4.70;;
46090;SDS011;31826;53.572;10.170;2023-04-01T04:02:16;13.60;;;5.90;;
46090;SDS011;31826;53.572;10.170;2023-04-01T04:04:42;10.97;;;5.33;;
46090;SDS011;31826;53.572;10.170;2023-04-01T04:07:08;12.73;;;5.43;;
46090;SDS011;31826;53.572;10.170;2023-04-01T04:09:34;11.03;;;5.20;;
46090;SDS011;31826;53.572;10.170;2023-04-01T04:12:00;10.17;;;4.37;;
46090;SDS011;31826;53.572;10.170;2023-04-01T04:14:26;10.85;;;5.15;;
46090;SDS011;31826;53.572;10.170;2023-04-01T04:16:52;11.63;;;5.47;;
46090;SDS011;31826;53.572;10.170;2023-04-01T04:19:18;11.25;;;5.47;;
46090;SDS011;31826;53.572;10.170;2023-04-01T04:21:43;11.10;;;5.13;;
46090;SDS011;31826;53.572;10.170;2023-04-01T04:24:09;10.43;;;4.93;;
46090;SDS011;31826;53.572;10.170;2023-04-01T04:26:35;12.45;;;5.18;;
46090;SDS011;31826;53.572;10.170;2023-04-01T04:29:01;10.98;;;5.50;;
46090;SDS011;31826;53.572;10.170;2023-04-01T04:31:28;11.50;;;4.97;;
46090;SDS011;31826;53.572;10.170;2023-04-01T04:33:54;13.18;;;5.35;;
46090;SDS011;31826;53.572;10.170;2023-04-01T04:36:20;12.00;;;5.20;;
46090;SDS011;31826;53.572;10.170;2023-04-01T04:38:46;9.38;;;4.30;;
46090;SDS011;31826;53.572;10.170;2023-04-01T04:41:13;9.43;;;4.40;;
46090;SDS011;31826;53.572;10.170;2023-04-01T04:43:40;9.18;;;4.50;;
46090;SDS011;31826;53.572;10.170;2023-04-01T04:46:07;8.65;;;4.10;;
46090;SDS011;31826;53.572;10.170;2023-04-01T04:48:35;11.07;;;4.65;;
46090;SDS011;31826;53.572;10.170;2023-04-01T04:51:01;9.85;;;4.00;;
46090;SDS011;31826;53.572;10.170;2023-04-01T04:53:28;8.18;;;4.13;;
46090;SDS011;31826;53.572;10.170;2023-04-01T04:55:53;9.10;;;4.25;;
46090;SDS011;31826;53.572;10.170;2023-04-01T04:58:19;9.95;;;4.10;;
46090;SDS011;31826;53.572;10.170;2023-04-01T05:00:45;8.98;;;3.78;;
46090;SDS011;31826;53.572;10.170;2023-04-01T05:03:11;11.18;;;4.30;;
46090;SDS011;31826;53.572;10.170;2023-04-01T05:05:39;11.60;;;4.17;;
46090;SDS011;31826;53.572;10.170;2023-04-01T05:08:12;8.30;;;3.70;;
46090;SDS011;31826;53.572;10.170;2023-04-01T05:10:38;9.53;;;4.00;;
46090;SDS011;31826;53.572;10.170;2023-04-01T05:13:04;7.63;;;3.40;;
46090;SDS011;31826;53.572;10.170;2023-04-01T05:15:29;7.73;;;3.93;;
46090;SDS011;31826;53.572;10.170;2023-04-01T05:17:55;7.67;;;3.23;;
46090;SDS011;31826;53.572;10.170;2023-04-01T05:20:21;3.95;;;1.73;;
46090;SDS011;31826;53.572;10.170;2023-04-01T05:22:46;3.28;;;1.60;;
46090;SDS011;31826;53.572;10.170;2023-04-01T05:25:12;2.83;;;1.30;;
46090;SDS011;31826;53.572;10.170;2023-04-01T05:27:38;1.92;;;1.48;;
46090;SDS011;31826;53.572;10.170;2023-04-01T05:30:04;2.60;;;1.50;;
46090;SDS011;31826;53.572;10.170;2023-04-01T05:32:30;3.85;;;1.35;;
46090;SDS011;31826;53.572;10.170;2023-04-01T05:34:56;2.47;;;1.20;;
46090;SDS011;31826;53.572;10.170;2023-04-01T05:37:22;2.07;;;1.20;;
46090;SDS011;31826;53.572;10.170;2023-04-01T05:39:48;2.60;;;1.30;;
46090;SDS011;31826;53.572;10.170;2023-04-01T05:42:13;2.03;;;1.20;;
46090;SDS011;31826;53.572;10.170;2023-04-01T05:44:40;3.00;;;1.33;;
46090;SDS011;31826;53.572;10.170;2023-04-01T05:47:06;4.27;;;1.30;;
46090;SDS011;31826;53.572;10.170;2023-04-01T05:49:32;2.00;;;1.40;;
46090;SDS011;31826;53.572;10.170;2023-04-01T05:51:58;2.60;;;1.30;;
46090;SDS011;31826;53.572;10.170;2023-04-01T05:54:24;1.42;;;1.23;;
46090;SDS011;31826;53.572;10.170;2023-04-01T05:56:50;3.15;;;1.50;;
46090;SDS011;31826;53.572;10.170;2023-04-01T05:59:15;2.20;;;1.30;;
46090;SDS011;31826;53.572;10.170;2023-04-01T06:01:41;2.53;;;1.30;;
46090;SDS011;31826;53.572;10.170;2023-04-01T06:04:10;1.63;;;1.10;;
46090;SDS011;31826;53.572;10.170;2023-04-01T06:06:40;2.17;;;1.30;;
46090;SDS011;31826;53.572;10.170;2023-04-01T06:17:26;1.10;;;1.00;;
46090;SDS011;31826;53.572;10.170;2023-04-01T06:36:53;1.25;;;1.00;;
46090;SDS011;31826;53.572;10.170;2023-04-01T06:56:14;1.00;;;0.90;;
46090;SDS011;31826;53.572;10.170;2023-04-01T06:58:50;1.00;;;0.90;;
46090;SDS011;31826;53.572;10.170;2023-04-01T07:01:26;1.40;;;0.70;;
46090;SDS011;31826;53.572;10.170;2023-04-01T07:03:58;0.80;;;0.80;;
46090;SDS011;31826;53.572;10.170;2023-04-01T07:06:30;0.90;;;0.90;;
46090;SDS011;31826;53.572;10.170;2023-04-01T07:09:31;0.80;;;0.80;;
46090;SDS011;31826;53.572;10.170;2023-04-01T07:12:01;1.02;;;0.93;;
46090;SDS011;31826;53.572;10.170;2023-04-01T07:14:36;1.13;;;1.03;;
46090;SDS011;31826;53.572;10.170;2023-04-01T07:19:52;0.82;;;0.77;;
46090;SDS011;31826;53.572;10.170;2023-04-01T07:24:50;1.02;;;0.80;;
46090;SDS011;31826;53.572;10.170;2023-04-01T07:27:17;1.20;;;0.90;;
46090;SDS011;31826;53.572;10.170;2023-04-01T07:29:42;0.75;;;0.75;;
46090;SDS011;31826;53.572;10.170;2023-04-01T07:32:22;1.67;;;0.90;;
46090;SDS011;31826;53.572;10.170;2023-04-01T07:46:26;1.48;;;0.88;;
46090;SDS011;31826;53.572;10.170;2023-04-01T07:52:06;2.50;;;1.60;;
46090;SDS011;31826;53.572;10.170;2023-04-01T07:54:48;0.98;;;0.88;;
46090;SDS011;31826;53.572;10.170;2023-04-01T07:57:22;0.70;;;0.70;;
46090;SDS011;31826;53.572;10.170;2023-04-01T08:02:48;0.93;;;0.80;;
46090;SDS011;31826;53.572;10.170;2023-04-01T08:05:26;1.38;;;0.90;;
46090;SDS011;31826;53.572;10.170;2023-04-01T08:21:27;1.83;;;1.10;;
46090;SDS011;31826;53.572;10.170;2023-04-01T08:23:58;1.10;;;0.70;;
46090;SDS011;31826;53.572;10.170;2023-04-01T08:26:34;1.52;;;0.85;;
46090;SDS011;31826;53.572;10.170;2023-04-01T08:31:45;1.40;;;1.10;;
46090;SDS011;31826;53.572;10.170;2023-04-01T08:34:21;1.05;;;0.90;;
46090;SDS011;31826;53.572;10.170;2023-04-01T08:37:02;1.83;;;0.88;;
46090;SDS011;31826;53.572;10.170;2023-04-01T08:39:35;1.48;;;0.80;;
46090;SDS011;31826;53.572;10.170;2023-04-01T08:42:11;1.42;;;0.80;;
46090;SDS011;31826;53.572;10.170;2023-04-01T09:07:29;1.00;;;0.90;;
46090;SDS011;31826;53.572;10.170;2023-04-01T09:12:51;1.88;;;1.10;;
46090;SDS011;31826;53.572;10.170;2023-04-01T09:23:43;0.80;;;0.70;;
46090;SDS011;31826;53.572;10.170;2023-04-01T09:43:47;0.85;;;0.80;;
46090;SDS011;31826;53.572;10.170;2023-04-01T09:46:23;1.25;;;1.05;;
46090;SDS011;31826;53.572;10.170;2023-04-01T09:54:59;0.85;;;0.77;;
46090;SDS011;31826;53.572;10.170;2023-04-01T09:58:07;0.70;;;0.60;;
46090;SDS011;31826;53.572;10.170;2023-04-01T10:17:51;1.35;;;1.00;;
46090;SDS011;31826;53.572;10.170;2023-04-01T10:23:19;0.70;;;0.70;;
46090;SDS011;31826;53.572;10.170;2023-04-01T10:34:02;1.20;;;0.82;;
46090;SDS011;31826;53.572;10.170;2023-04-01T10:50:27;0.60;;;0.60;;
46090;SDS011;31826;53.572;10.170;2023-04-01T11:16:45;0.80;;;0.80;;
46090;SDS011;31826;53.572;10.170;2023-04-01T11:33:14;1.75;;;1.20;;
46090;SDS011;31826;53.572;10.170;2023-04-01T11:41:30;1.67;;;1.20;;
46090;SDS011;31826;53.572;10.170;2023-04-01T11:58:08;5.65;;;2.42;;
46090;SDS011;31826;53.572;10.170;2023-04-01T12:03:46;3.72;;;2.25;;
46090;SDS011;31826;53.572;10.170;2023-04-01T12:15:26;3.70;;;2.03;;
46090;SDS011;31826;53.572;10.170;2023-04-01T12:17:42;5.35;;;2.58;;
46090;SDS011;31826;53.572;10.170;2023-04-01T12:25:36;5.70;;;2.42;;
46090;SDS011;31826;53.572;10.170;2023-04-01T12:28:14;11.67;;;3.80;;
46090;SDS011;31826;53.572;10.170;2023-04-01T12:38:58;6.50;;;2.47;;
46090;SDS011;31826;53.572;10.170;2023-04-01T12:41:42;6.25;;;2.40;;
46090;SDS011;31826;53.572;10.170;2023-04-01T12:47:48;3.08;;;1.92;;
46090;SDS011;31826;53.572;10.170;2023-04-01T13:06:29;5.53;;;2.20;;
46090;SDS011;31826;53.572;10.170;2023-04-01T13:22:23;3.80;;;2.05;;
46090;SDS011;31826;53.572;10.170;2023-04-01T13:27:41;4.07;;;2.03;;
46090;SDS011;31826;53.572;10.170;2023-04-01T13:35:55;6.75;;;2.17;;
46090;SDS011;31826;53.572;10.170;2023-04-01T13:41:54;6.50;;;2.30;;
46090;SDS011;31826;53.572;10.170;2023-04-01T13:44:37;5.25;;;2.22;;
46090;SDS011;31826;53.572;10.170;2023-04-01T14:12:12;5.95;;;2.78;;
46090;SDS011;31826;53.572;10.170;2023-04-01T14:50:15;8.07;;;2.78;;
46090;SDS011;31826;53.572;10.170;2023-04-01T14:52:57;5.35;;;2.35;;
46090;SDS011;31826;53.572;10.170;2023-04-01T14:58:17;6.38;;;2.60;;
46090;SDS011;31826;53.572;10.170;2023-04-01T15:06:42;7.05;;;3.15;;
46090;SDS011;31826;53.572;10.170;2023-04-01T15:09:40;7.68;;;2.80;;
46090;SDS011;31826;53.572;10.170;2023-04-01T15:12:14;7.32;;;2.78;;
46090;SDS011;31826;53.572;10.170;2023-04-01T15:23:42;7.97;;;3.17;;
46090;SDS011;31826;53.572;10.170;2023-04-01T15:26:28;8.90;;;2.90;;
46090;SDS011;31826;53.572;10.170;2023-04-01T15:32:13;7.72;;;2.45;;
46090;SDS011;31826;53.572;10.170;2023-04-01T15:51:48;6.43;;;2.77;;
46090;SDS011;31826;53.572;10.170;2023-04-01T15:54:37;6.85;;;3.30;;
46090;SDS011;31826;53.572;10.170;2023-04-01T16:10:50;6.68;;;2.67;;
46090;SDS011;31826;53.572;10.170;2023-04-01T16:15:50;8.57;;;2.97;;
46090;SDS011;31826;53.572;10.170;2023-04-01T16:21:14;6.35;;;2.90;;
46090;SDS011;31826;53.572;10.170;2023-04-01T16:23:55;10.68;;;3.10;;
46090;SDS011;31826;53.572;10.170;2023-04-01T16:32:18;8.30;;;3.23;;
46090;SDS011;31826;53.572;10.170;2023-04-01T16:37:44;8.95;;;3.00;;
46090;SDS011;31826;53.572;10.170;2023-04-01T16:41:00;3.72;;;2.00;;
46090;SDS011;31826;53.572;10.170;2023-04-01T16:43:15;8.00;;;2.63;;
46090;SDS011;31826;53.572;10.170;2023-04-01T16:49:07;7.82;;;2.70;;
46090;SDS011;31826;53.572;10.170;2023-04-01T16:54:36;9.80;;;3.00;;
46090;SDS011;31826;53.572;10.170;2023-04-01T17:02:16;7.10;;;3.17;;
46090;SDS011;31826;53.572;10.170;2023-04-01T17:04:47;8.55;;;2.95;;
46090;SDS011;31826;53.572;10.170;2023-04-01T17:12:38;8.35;;;2.72;;
46090;SDS011;31826;53.572;10.170;2023-04-01T17:15:21;8.02;;;3.70;;
46090;SDS011;31826;53.572;10.170;2023-04-01T17:18:13;7.50;;;2.90;;
46090;SDS011;31826;53.572;10.170;2023-04-01T17:24:51;6.33;;;2.40;;
46090;SDS011;31826;53.572;10.170;2023-04-01T17:27:18;7.15;;;2.58;;
46090;SDS011;31826;53.572;10.170;2023-04-01T17:43:07;5.50;;;2.40;;
46090;SDS011;31826;53.572;10.170;2023-04-01T17:45:57;4.65;;;2.17;;
46090;SDS011;31826;53.572;10.170;2023-04-01T17:51:33;6.70;;;2.20;;
46090;SDS011;31826;53.572;10.170;2023-04-01T17:54:20;7.10;;;2.65;;
46090;SDS011;31826;53.572;10.170;2023-04-01T17:57:02;6.00;;;2.20;;
46090;SDS011;31826;53.572;10.170;2023-04-01T17:59:57;8.00;;;2.90;;
46090;SDS011;31826;53.572;10.170;2023-04-01T18:16:43;5.97;;;2.38;;
46090;SDS011;31826;53.572;10.170;2023-04-01T18:22:04;4.90;;;2.50;;
46090;SDS011;31826;53.572;10.170;2023-04-01T18:27:27;5.47;;;2.50;;
46090;SDS011;31826;53.572;10.170;2023-04-01T18:30:15;6.65;;;2.50;;
46090;SDS011;31826;53.572;10.170;2023-04-01T18:32:50;5.15;;;2.35;;
46090;SDS011;31826;53.572;10.170;2023-04-01T18:38:52;6.28;;;2.30;;
46090;SDS011;31826;53.572;10.170;2023-04-01T18:49:43;7.50;;;2.63;;
46090;SDS011;31826;53.572;10.170;2023-04-01T18:52:32;7.72;;;2.50;;
46090;SDS011;31826;53.572;10.170;2023-04-01T18:57:46;8.95;;;3.20;;
46090;SDS011;31826;53.572;10.170;2023-04-01T19:00:28;6.35;;;2.60;;
46090;SDS011;31826;53.572;10.170;2023-04-01T19:05:41;8.00;;;2.67;;
46090;SDS011;31826;53.572;10.170;2023-04-01T19:13:56;6.20;;;2.30;;
46090;SDS011;31826;53.572;10.170;2023-04-01T19:22:03;6.18;;;2.45;;
46090;SDS011;31826;53.572;10.170;2023-04-01T19:24:53;7.03;;;2.40;;
46090;SDS011;31826;53.572;10.170;2023-04-01T19:43:52;6.50;;;2.60;;
46090;SDS011;31826;53.572;10.170;2023-04-01T19:46:29;6.50;;;2.17;;
46090;SDS011;31826;53.572;10.170;2023-04-01T19:51:41;6.50;;;2.30;;
46090;SDS011;31826;53.572;10.170;2023-04-01T19:54:50;5.30;;;2.10;;
46090;SDS011;31826;53.572;10.170;2023-04-01T20:06:06;4.53;;;2.03;;
46090;SDS011;31826;53.572;10.170;2023-04-01T20:08:36;3.97;;;2.08;;
46090;SDS011;31826;53.572;10.170;2023-04-01T20:16:17;3.95;;;1.80;;
46090;SDS011;31826;53.572;10.170;2023-04-01T20:18:57;8.93;;;2.60;;
46090;SDS011;31826;53.572;10.170;2023-04-01T20:21:45;7.13;;;2.58;;
46090;SDS011;31826;53.572;10.170;2023-04-01T20:27:10;6.20;;;2.20;;
46090;SDS011;31826;53.572;10.170;2023-04-01T20:35:25;9.75;;;2.65;;
46090;SDS011;31826;53.572;10.170;2023-04-01T20:40:40;8.13;;;2.30;;
46090;SDS011;31826;53.572;10.170;2023-04-01T20:45:57;3.23;;;1.87;;
46090;SDS011;31826;53.572;10.170;2023-04-01T20:51:46;6.57;;;2.03;;
46090;SDS011;31826;53.572;10.170;2023-04-01T21:06:14;5.80;;;1.58;;
46090;SDS011;31826;53.572;10.170;2023-04-01T21:14:28;5.78;;;1.98;;
46090;SDS011;31826;53.572;10.170;2023-04-01T21:22:36;5.03;;;1.60;;
46090;SDS011;31826;53.572;10.170;2023-04-01T21:25:26;5.03;;;2.10;;
46090;SDS011;31826;53.572;10.170;2023-04-01T21:48:08;6.00;;;1.90;;
46090;SDS011;31826;53.572;10.170;2023-04-01T21:51:07;6.20;;;1.63;;
46090;SDS011;31826;53.572;10.170;2023-04-01T22:02:40;4.32;;;1.67;;
46090;SDS011;31826;53.572;10.170;2023-04-01T22:13:48;6.20;;;1.67;;
46090;SDS011;31826;53.572;10.170;2023-04-01T22:16:51;5.40;;;1.55;;
46090;SDS011;31826;53.572;10.170;2023-04-01T22:19:24;3.50;;;1.50;;
46090;SDS011;31826;53.572;10.170;2023-04-01T22:22:17;5.57;;;1.60;;
46090;SDS011;31826;53.572;10.170;2023-04-01T22:25:04;3.05;;;1.33;;
46090;SDS011;31826;53.572;10.170;2023-04-01T22:33:07;3.20;;;1.37;;
46090;SDS011;31826;53.572;10.170;2023-04-01T22:41:42;2.30;;;1.38;;
46090;SDS011;31826;53.572;10.170;2023-04-01T22:43:42;4.68;;;1.58;;
46090;SDS011;31826;53.572;10.170;2023-04-01T22:46:14;3.45;;;1.55;;
46090;SDS011;31826;53.572;10.170;2023-04-01T22:48:52;3.97;;;1.40;;
46090;SDS011;31826;53.572;10.170;2023-04-01T22:56:37;4.43;;;1.77;;
46090;SDS011;31826;53.572;10.170;2023-04-01T22:59:19;3.10;;;1.23;;
46090;SDS011;31826;53.572;10.170;2023-04-01T23:02:06;5.53;;;1.40;;
46090;SDS011;31826;53.572;10.170;2023-04-01T23:04:40;4.80;;;1.50;;
46090;SDS011;31826;53.572;10.170;2023-04-01T23:08:21;5.88;;;1.63;;
46090;SDS011;31826;53.572;10.170;2023-04-01T23:10:24;5.80;;;1.60;;
46090;SDS011;31826;53.572;10.170;2023-04-01T23:13:04;4.05;;;1.50;;
46090;SDS011;31826;53.572;10.170;2023-04-01T23:15:35;5.25;;;1.30;;
46090;SDS011;31826;53.572;10.170;2023-04-01T23:20:30;4.63;;;1.70;;
46090;SDS011;31826;53.572;10.170;2023-04-01T23:23:22;4.18;;;1.30;;
46090;SDS011;31826;53.572;10.170;2023-04-01T23:26:11;3.67;;;1.50;;
46090;SDS011;31826;53.572;10.170;2023-04-01T23:28:51;3.60;;;1.20;;
46090;SDS011;31826;53.572;10.170;2023-04-01T23:31:25;5.15;;;1.50;;
46090;SDS011;31826;53.572;10.170;2023-04-01T23:34:24;2.92;;;1.38;;
46090;SDS011;31826;53.572;10.170;2023-04-01T23:36:51;6.30;;;1.63;;
46090;SDS011;31826;53.572;10.170;2023-04-01T23:41:50;4.05;;;1.45;;
46090;SDS011;31826;53.572;10.170;2023-04-01T23:44:18;4.72;;;1.48;;
46090;SDS011;31826;53.572;10.170;2023-04-01T23:46:45;3.58;;;1.30;;
46090;SDS011;31826;53.572;10.170;2023-04-01T23:49:14;6.95;;;1.77;;
46090;SDS011;31826;53.572;10.170;2023-04-01T23:51:59;5.80;;;1.50;;
46090;SDS011;31826;53.572;10.170;2023-04-01T23:54:49;3.47;;;1.27;;
46090;SDS011;31826;53.572;10.170;2023-04-01T23:57:27;2.67;;;1.27;;
46090;SDS011;31826;53.572;10.170;2023-04-01T23:59:59;2.50;;;1.02;;
